CheckWX is a tool to help pilots better visualize weather data.  It is not intended as a substitute for an official pre-flight weather briefing.

08:23:52 UTC

PABE TAF
Bethel Airport
Bethel, Alaska, USA
PABE 190537Z 1906/2006 03009KT P6SM VCSH BKN050 FM191400 06007KT P6SM -SHSN SCT015 OVC025 FM191700 06007KT P6SM FEW003 SCT007 OVC015 FM192300 06007KT P6SM FEW015 SCT050 SCT250

Jan-19@
06:00 UTC

Jan-19 @ 06:00 UTC

Jan-19@
14:00 UTC

Jan-19 @ 14:00 UTC

PABE 190537Z 1906/2006 03009KT P6SM VCSH BKN050
Wind
  • 030° at 9 KTS
Cloud Levels
  • Broken at 5,000' AGL

Jan-19@
14:00 UTC

Jan-19 @ 14:00 UTC

Jan-19@
17:00 UTC

Jan-19 @ 17:00 UTC

FM191400 06007KT P6SM -SHSN SCT015 OVC025

From

From Standard forecast or significant change

Wind
  • 060° at 7 KTS
Conditions
Light Snow
Cloud Levels
  • Scattered at 1,500' AGL
  • Overcast at 2,500' AGL

Jan-19@
17:00 UTC

Jan-19 @ 17:00 UTC

Jan-19@
23:00 UTC

Jan-19 @ 23:00 UTC

FM191700 06007KT P6SM FEW003 SCT007 OVC015

From

From Standard forecast or significant change

Wind
  • 060° at 7 KTS
Cloud Levels
  • Few at 300' AGL
  • Scattered at 700' AGL
  • Overcast at 1,500' AGL

Jan-19@
23:00 UTC

Jan-19 @ 23:00 UTC

Jan-20@
06:00 UTC

Jan-20 @ 06:00 UTC

FM192300 06007KT P6SM FEW015 SCT050 SCT250

From

From Standard forecast or significant change

Wind
  • 060° at 7 KTS
Cloud Levels
  • Few at 1,500' AGL
  • Scattered at 5,000' AGL
  • Scattered at 25,000' AGL